Time;durP1;ratioP1;P1;durP2;ratioP2;P2;SDS_P1;SDS_P2;PMS_P1;PMS_P2;Temp;Humidity;BMP_temperature;BMP_pressure;BME280_temperature;BME280_humidity;BME280_pressure;Samples;Min_cycle;Max_cycle;Signal;HPM_P1;HPM_P2
2023/06/24 08:36:04;;;;;;;;;5.00;5.00;;;;;;;;5104997;27;13383;-72
2023/06/24 08:38:29;;;;;;;;;4.25;4.25;;;;;;;;5108795;28;9515;-74
2023/06/24 08:40:55;;;;;;;;;2.00;2.00;;;;;;;;5105849;28;8831;-75
2023/06/24 08:43:20;;;;;;;;;4.50;3.00;;;;;;;;5108132;28;8869;-75
2023/06/24 08:45:46;;;;;;;;;3.00;3.00;;;;;;;;5106633;28;8824;-73
2023/06/24 08:48:12;;;;;;;;;3.75;2.50;;;;;;;;5108145;28;8815;-74
2023/06/24 08:50:43;;;;;;;;;2.20;2.20;;;;;;;;5124898;27;8843;-74
2023/06/24 08:53:09;;;;;;;;;6.00;5.40;;;;;;;;5127994;27;8825;-74
2023/06/24 08:55:39;;;;;;;;;2.20;2.20;;;;;;;;5128490;27;9586;-73
2023/06/24 08:58:05;;;;;;;;;4.40;3.80;;;;;;;;5128273;27;8842;-73
2023/06/24 09:00:30;;;;;;;;;4.00;3.00;;;;;;;;5125618;27;8770;-74
2023/06/24 09:02:55;;;;;;;;;2.33;2.00;;;;;;;;5127175;27;8808;-73
2023/06/24 09:05:21;;;;;;;;;2.00;2.00;;;;;;;;5128131;27;8797;-74
2023/06/24 09:07:47;;;;;;;;;6.67;6.67;;;;;;;;5128164;27;8804;-73
2023/06/24 09:10:29;;;;;;;;;4.00;4.00;;;;;;;;5128465;27;8816;-74
2023/06/24 09:12:54;;;;;;;;;9.75;8.25;;;;;;;;5121973;27;8785;-72
2023/06/24 09:15:20;;;;;;;;;4.00;4.00;;;;;;;;5115430;28;8839;-71
2023/06/24 09:17:48;;;;;;;;;4.33;3.00;;;;;;;;5107636;28;8842;-71
2023/06/24 09:20:13;;;;;;;;;3.50;2.50;;;;;;;;5124131;27;8920;-73
2023/06/24 09:22:41;;;;;;;;;2.67;2.00;;;;;;;;5106776;27;8927;-71
2023/06/24 09:25:07;;;;;;;;;3.00;3.00;;;;;;;;5107517;28;8892;-71
2023/06/24 09:27:35;;;;;;;;;3.00;3.00;;;;;;;;5107549;28;8891;-70
2023/06/24 09:30:00;;;;;;;;;2.20;2.20;;;;;;;;5107105;28;8764;-70
2023/06/24 09:32:29;;;;;;;;;3.00;3.00;;;;;;;;5105851;28;8815;-71
2023/06/24 09:34:54;;;;;;;;;2.25;1.75;;;;;;;;5106782;28;8858;-72
2023/06/24 09:37:23;;;;;;;;;1.00;1.00;;;;;;;;5107207;28;8796;-72
2023/06/24 09:39:49;;;;;;;;;3.00;3.00;;;;;;;;5107205;28;8807;-73
2023/06/24 09:42:14;;;;;;;;;2.67;1.33;;;;;;;;5105553;28;8827;-73
2023/06/24 09:44:40;;;;;;;;;1.67;1.67;;;;;;;;5106953;28;8827;-73
2023/06/24 09:47:05;;;;;;;;;1.00;1.00;;;;;;;;5095451;28;8804;-72
2023/06/24 09:49:31;;;;;;;;;2.00;2.00;;;;;;;;5103889;28;8833;-72
2023/06/24 09:51:59;;;;;;;;;2.33;1.33;;;;;;;;5094913;28;8812;-72
2023/06/24 09:54:28;;;;;;;;;1.75;1.75;;;;;;;;5078173;28;8826;-72
2023/06/24 09:56:54;;;;;;;;;2.00;2.00;;;;;;;;5072833;28;8802;-72
2023/06/24 09:59:21;;;;;;;;;1.25;1.25;;;;;;;;5071666;28;8786;-71
2023/06/24 10:01:47;;;;;;;;;2.00;2.00;;;;;;;;5083482;28;8835;-71
2023/06/24 10:04:15;;;;;;;;;3.00;1.67;;;;;;;;5093029;28;8792;-72
2023/06/24 10:06:40;;;;;;;;;2.00;1.50;;;;;;;;5091141;28;8884;-71
2023/06/24 10:09:06;;;;;;;;;3.00;1.33;;;;;;;;5090718;28;8807;-72
2023/06/24 10:11:31;;;;;;;;;2.00;2.00;;;;;;;;5091024;28;8930;-70
2023/06/24 10:13:56;;;;;;;;;3.00;2.00;;;;;;;;5092770;28;8851;-72
2023/06/24 10:16:25;;;;;;;;;1.67;1.00;;;;;;;;5092914;28;8850;-72
2023/06/24 10:18:50;;;;;;;;;4.00;2.00;;;;;;;;5096286;28;8801;-72
2023/06/24 10:21:16;;;;;;;;;2.00;2.00;;;;;;;;5108193;28;9579;-73
2023/06/24 10:23:52;;;;;;;;;2.00;1.00;;;;;;;;5111400;28;8860;-73
2023/06/24 10:26:24;;;;;;;;;1.75;1.75;;;;;;;;5113204;28;8781;-73
2023/06/24 10:29:04;;;;;;;;;1.50;1.00;;;;;;;;5104018;28;9580;-71
2023/06/24 10:31:38;;;;;;;;;3.00;2.00;;;;;;;;5089392;28;8804;-70
2023/06/24 10:34:19;;;;;;;;;1.75;1.75;;;;;;;;5092075;28;8835;-73
2023/06/24 10:36:55;;;;;;;;;3.25;3.00;;;;;;;;5091196;28;8909;-73
2023/06/24 10:39:39;;;;;;;;;3.00;3.00;;;;;;;;5092373;28;8808;-70
2023/06/24 10:42:23;;;;;;;;;1.00;1.00;;;;;;;;5092132;28;8792;-70
2023/06/24 10:44:48;;;;;;;;;2.00;2.00;;;;;;;;5091496;28;8800;-70
2023/06/24 10:47:13;;;;;;;;;0.00;0.00;;;;;;;;5091042;28;8830;-73
2023/06/24 10:49:39;;;;;;;;;1.00;1.00;;;;;;;;5102939;28;8798;-71
2023/06/24 10:52:07;;;;;;;;;1.33;1.33;;;;;;;;5112819;28;8769;-69
2023/06/24 10:54:32;;;;;;;;;1.50;0.25;;;;;;;;5101065;28;8971;-72
2023/06/24 10:56:58;;;;;;;;;3.00;1.33;;;;;;;;5090643;28;8930;-72
2023/06/24 10:59:23;;;;;;;;;0.67;0.67;;;;;;;;5089862;28;8834;-73
2023/06/24 11:01:53;;;;;;;;;1.67;1.00;;;;;;;;5088628;28;8824;-73
2023/06/24 11:04:18;;;;;;;;;0.00;0.00;;;;;;;;5091492;28;8827;-73
2023/06/24 11:06:56;;;;;;;;;1.33;0.00;;;;;;;;5093089;28;8776;-71
2023/06/24 11:09:21;;;;;;;;;0.00;0.00;;;;;;;;5091276;28;8784;-73
2023/06/24 11:11:46;;;;;;;;;1.00;1.00;;;;;;;;5091220;28;8815;-71
2023/06/24 11:14:12;;;;;;;;;1.00;0.00;;;;;;;;5090843;28;8919;-72
2023/06/24 11:16:38;;;;;;;;;0.00;0.00;;;;;;;;5091527;28;8827;-72
2023/06/24 11:19:05;;;;;;;;;1.00;1.00;;;;;;;;5098301;28;8916;-75
2023/06/24 11:21:33;;;;;;;;;0.75;0.50;;;;;;;;5091661;28;8852;-70
2023/06/24 11:24:04;;;;;;;;;0.00;0.00;;;;;;;;5092715;28;8784;-72
2023/06/24 11:26:29;;;;;;;;;2.50;0.75;;;;;;;;5101836;28;8808;-72
2023/06/24 11:28:55;;;;;;;;;1.00;0.00;;;;;;;;5096960;28;8784;-75
2023/06/24 11:31:26;;;;;;;;;0.67;0.67;;;;;;;;5090815;28;8815;-74
2023/06/24 11:33:51;;;;;;;;;1.75;1.50;;;;;;;;5090012;28;8891;-78
2023/06/24 11:36:20;;;;;;;;;0.00;0.00;;;;;;;;5090562;28;8960;-75
2023/06/24 11:38:46;;;;;;;;;1.00;1.00;;;;;;;;5092901;28;8816;-72
2023/06/24 11:41:11;;;;;;;;;2.00;2.00;;;;;;;;5091529;28;8812;-75
2023/06/24 11:43:36;;;;;;;;;1.00;1.00;;;;;;;;5090808;28;8784;-73
2023/06/24 11:46:01;;;;;;;;;0.00;0.00;;;;;;;;5087314;28;8839;-73
2023/06/24 11:48:30;;;;;;;;;1.00;1.00;;;;;;;;5092948;28;9553;-73
2023/06/24 11:50:55;;;;;;;;;1.00;1.00;;;;;;;;5107982;28;8810;-73
2023/06/24 11:53:31;;;;;;;;;0.00;0.00;;;;;;;;5099537;28;8923;-72
2023/06/24 11:55:56;;;;;;;;;0.00;0.00;;;;;;;;5093546;28;8805;-74
2023/06/24 11:58:21;;;;;;;;;1.00;0.00;;;;;;;;5098877;28;8797;-74
2023/06/24 12:00:48;;;;;;;;;0.00;0.00;;;;;;;;5100279;28;8784;-74
2023/06/24 12:03:14;;;;;;;;;0.00;0.00;;;;;;;;5094052;28;8772;-74
2023/06/24 12:05:44;;;;;;;;;0.00;0.00;;;;;;;;5090562;28;8854;-74
2023/06/24 12:08:15;;;;;;;;;0.00;0.00;;;;;;;;5088691;28;9545;-74
2023/06/24 12:10:40;;;;;;;;;0.00;0.00;;;;;;;;5090159;28;8772;-74
2023/06/24 12:13:06;;;;;;;;;0.33;0.33;;;;;;;;5089885;28;8881;-75
2023/06/24 12:15:31;;;;;;;;;0.00;0.00;;;;;;;;5089900;28;8850;-74
2023/06/24 12:18:01;;;;;;;;;0.00;0.00;;;;;;;;5088802;28;8792;-74
2023/06/24 12:20:26;;;;;;;;;0.00;0.00;;;;;;;;5090264;28;8804;-74
2023/06/24 12:22:51;;;;;;;;;0.00;0.00;;;;;;;;5090119;28;8804;-74
2023/06/24 12:25:17;;;;;;;;;1.00;1.00;;;;;;;;5090773;28;8872;-73
2023/06/24 12:27:42;;;;;;;;;0.67;0.67;;;;;;;;5089679;28;8776;-73
2023/06/24 12:30:08;;;;;;;;;0.00;0.00;;;;;;;;5091846;28;8992;-74
2023/06/24 12:32:34;;;;;;;;;0.00;0.00;;;;;;;;5110762;28;8876;-76
2023/06/24 12:34:59;;;;;;;;;0.00;0.00;;;;;;;;5105518;28;8956;-74
2023/06/24 12:37:24;;;;;;;;;0.00;0.00;;;;;;;;5101454;28;8793;-75
2023/06/24 12:39:51;;;;;;;;;0.00;0.00;;;;;;;;5096758;28;8957;-74
2023/06/24 12:42:16;;;;;;;;;0.00;0.00;;;;;;;;5100593;28;8825;-73
2023/06/24 12:44:41;;;;;;;;;3.00;0.33;;;;;;;;5093099;28;8826;-75
2023/06/24 12:47:07;;;;;;;;;0.00;0.00;;;;;;;;5090665;28;8795;-73
2023/06/24 12:49:32;;;;;;;;;0.00;0.00;;;;;;;;5101006;28;8793;-74
2023/06/24 12:51:57;;;;;;;;;0.00;0.00;;;;;;;;5110865;28;8770;-72
2023/06/24 12:54:22;;;;;;;;;0.33;0.33;;;;;;;;5109452;28;8907;-74
2023/06/24 12:56:48;;;;;;;;;0.67;0.00;;;;;;;;5110929;28;9464;-74
2023/06/24 12:59:13;;;;;;;;;0.00;0.00;;;;;;;;5110984;28;8812;-76
2023/06/24 13:01:38;;;;;;;;;0.00;0.00;;;;;;;;5110733;28;8773;-73
